Time;durP1;ratioP1;P1;durP2;ratioP2;P2;SDS_P1;SDS_P2;PMS_P1;PMS_P2;Temp;Humidity;BMP_temperature;BMP_pressure;BME280_temperature;BME280_humidity;BME280_pressure;Samples;Min_cycle;Max_cycle;Signal;HPM_P1;HPM_P2
2021/05/23 00:02:06;;;;;;;2.60;2.40;;;12.80;99.90;;;;;;4895710;29;20527;-68
2021/05/23 00:04:32;;;;;;;4.47;2.30;;;12.80;99.90;;;;;;4894351;29;20458;-68
2021/05/23 00:06:58;;;;;;;2.50;2.17;;;12.80;99.90;;;;;;4895429;29;20439;-68
2021/05/23 00:09:24;;;;;;;2.10;1.90;;;12.70;99.90;;;;;;4895016;29;20443;-68
2021/05/23 00:11:50;;;;;;;2.40;1.70;;;12.70;99.90;;;;;;4895583;29;20802;-68
2021/05/23 00:14:18;;;;;;;2.93;1.67;;;12.60;99.90;;;;;;4895419;29;20447;-68
2021/05/23 00:16:43;;;;;;;1.90;1.50;;;12.60;99.90;;;;;;4896317;29;20185;-68
2021/05/23 00:19:09;;;;;;;2.97;1.50;;;12.70;99.90;;;;;;4895292;29;20984;-68
2021/05/23 00:21:35;;;;;;;1.90;1.37;;;12.70;99.90;;;;;;4895548;29;20209;-68
2021/05/23 00:24:00;;;;;;;2.57;1.77;;;12.70;99.90;;;;;;4895469;29;20187;-67
2021/05/23 00:26:26;;;;;;;1.70;1.43;;;12.70;99.90;;;;;;4895285;29;20609;-67
2021/05/23 00:28:53;;;;;;;4.10;1.40;;;12.70;99.90;;;;;;4894684;29;20275;-67
2021/05/23 00:31:18;;;;;;;1.77;1.20;;;12.60;99.90;;;;;;4895437;29;20270;-67
2021/05/23 00:33:44;;;;;;;2.17;2.00;;;12.60;99.90;;;;;;4895124;29;20513;-67
2021/05/23 00:36:10;;;;;;;1.67;1.40;;;12.50;99.90;;;;;;4895365;29;20432;-67
2021/05/23 00:38:35;;;;;;;1.43;1.27;;;12.50;99.90;;;;;;4895273;29;20226;-67
2021/05/23 00:41:01;;;;;;;6.43;1.30;;;12.50;99.90;;;;;;4895302;29;20326;-68
2021/05/23 00:43:26;;;;;;;2.00;1.40;;;12.40;99.90;;;;;;4895699;29;20187;-67
2021/05/23 00:45:52;;;;;;;1.60;1.30;;;12.40;99.90;;;;;;4895580;29;20278;-68
2021/05/23 00:48:19;;;;;;;1.80;1.30;;;12.30;99.90;;;;;;4895119;29;20213;-67
2021/05/23 00:50:45;;;;;;;2.10;1.37;;;12.30;99.90;;;;;;4895168;29;20179;-68
2021/05/23 00:53:11;;;;;;;2.00;1.43;;;12.30;99.90;;;;;;4895194;29;20478;-68
2021/05/23 00:55:38;;;;;;;2.30;1.90;;;12.30;99.90;;;;;;4895113;29;20198;-68
2021/05/23 00:58:05;;;;;;;1.93;1.43;;;12.30;99.90;;;;;;4894982;29;20207;-68
2021/05/23 01:00:39;;;;;;;1.37;1.27;;;12.30;99.90;;;;;;4894581;29;20439;-68
2021/05/23 01:03:25;;;;;;;1.33;1.23;;;12.20;99.90;;;;;;4894927;29;20521;-68
2021/05/23 01:05:58;;;;;;;3.13;1.20;;;12.20;99.90;;;;;;4895185;29;21005;-67
2021/05/23 01:08:25;;;;;;;2.30;2.00;;;12.10;99.90;;;;;;4895435;29;20474;-68
2021/05/23 01:10:56;;;;;;;3.97;2.57;;;12.10;99.90;;;;;;4894684;29;20462;-68
2021/05/23 01:13:34;;;;;;;1.83;1.20;;;12.00;99.90;;;;;;4894892;29;20538;-67
2021/05/23 01:16:10;;;;;;;2.60;2.00;;;11.90;99.90;;;;;;4898441;29;20442;-68
2021/05/23 01:18:51;;;;;;;4.97;1.33;;;11.80;99.90;;;;;;4898579;29;20454;-68
2021/05/23 01:21:19;;;;;;;1.67;1.30;;;11.70;99.90;;;;;;4890965;29;20478;-67
2021/05/23 01:23:59;;;;;;;1.40;1.30;;;11.60;99.90;;;;;;4896170;29;20461;-67
2021/05/23 01:26:29;;;;;;;1.20;1.10;;;11.60;99.90;;;;;;4885912;29;20550;-68
2021/05/23 01:28:59;;;;;;;1.20;1.10;;;11.70;99.90;;;;;;4879947;29;20472;-67
2021/05/23 01:31:28;;;;;;;2.10;1.30;;;11.70;99.90;;;;;;4880921;29;20443;-67
2021/05/23 01:33:56;;;;;;;1.57;1.30;;;11.80;99.90;;;;;;4887817;29;20440;-67
2021/05/23 01:36:24;;;;;;;1.60;1.37;;;11.90;99.90;;;;;;4889748;29;21021;-67
2021/05/23 01:38:51;;;;;;;1.60;1.20;;;11.90;99.90;;;;;;4887054;29;20494;-67
2021/05/23 01:41:17;;;;;;;2.53;1.33;;;11.80;99.90;;;;;;4896344;29;20447;-67
2021/05/23 01:43:42;;;;;;;1.30;1.20;;;11.80;99.90;;;;;;4885119;29;20521;-68
2021/05/23 01:46:09;;;;;;;1.80;1.43;;;11.80;99.90;;;;;;4892521;29;20978;-68
2021/05/23 01:48:37;;;;;;;1.50;1.40;;;11.80;99.90;;;;;;4893623;29;20283;-69
2021/05/23 01:51:07;;;;;;;4.70;2.10;;;11.80;99.90;;;;;;4888125;29;20452;-68
2021/05/23 01:53:33;;;;;;;1.00;1.00;;;11.70;99.90;;;;;;4883260;29;20862;-68
2021/05/23 01:55:59;;;;;;;1.30;1.20;;;11.70;99.90;;;;;;4897742;29;20435;-68
2021/05/23 01:58:25;;;;;;;2.23;1.50;;;11.70;99.90;;;;;;4897756;29;20459;-68
2021/05/23 02:00:53;;;;;;;1.50;1.30;;;11.80;99.90;;;;;;4897592;29;20186;-68
2021/05/23 02:03:22;;;;;;;1.30;1.20;;;11.70;99.90;;;;;;4896181;29;20800;-67
2021/05/23 02:05:50;;;;;;;2.80;1.33;;;11.70;99.90;;;;;;4897530;29;20968;-67
2021/05/23 02:08:18;;;;;;;2.10;1.33;;;11.70;99.90;;;;;;4897815;29;20467;-67
2021/05/23 02:10:44;;;;;;;3.07;1.60;;;11.70;99.90;;;;;;4897332;29;20494;-67
2021/05/23 02:13:10;;;;;;;1.93;1.60;;;11.70;99.90;;;;;;4897327;29;20467;-68
2021/05/23 02:15:37;;;;;;;1.40;1.30;;;11.60;99.90;;;;;;4897465;29;20187;-67
2021/05/23 02:18:03;;;;;;;1.47;1.00;;;11.60;99.90;;;;;;4897321;29;20462;-67
2021/05/23 02:20:30;;;;;;;1.50;1.40;;;11.60;99.90;;;;;;4897325;29;20431;-68
2021/05/23 02:22:58;;;;;;;4.10;1.30;;;11.60;99.90;;;;;;4896706;29;20447;-68
2021/05/23 02:25:26;;;;;;;1.67;1.20;;;11.60;99.90;;;;;;4896253;29;20450;-67
2021/05/23 02:27:54;;;;;;;5.30;1.60;;;11.40;99.90;;;;;;4897245;29;21116;-68
2021/05/23 02:30:29;;;;;;;2.00;1.00;;;11.00;99.90;;;;;;4896703;29;20439;-67
2021/05/23 02:32:56;;;;;;;1.00;1.00;;;10.70;99.90;;;;;;4897992;29;20426;-67
2021/05/23 02:35:25;;;;;;;1.87;1.47;;;10.30;99.90;;;;;;4896749;29;20474;-66
2021/05/23 02:37:52;;;;;;;3.80;1.33;;;10.00;99.90;;;;;;4897089;29;20478;-66
2021/05/23 02:40:20;;;;;;;2.67;1.20;;;9.80;99.90;;;;;;4896715;29;20491;-68
2021/05/23 02:42:47;;;;;;;3.03;1.10;;;9.70;99.90;;;;;;4897079;29;20442;-68
2021/05/23 02:45:15;;;;;;;2.00;0.80;;;9.60;99.90;;;;;;4896943;29;20446;-67
2021/05/23 02:47:41;;;;;;;1.57;0.87;;;9.50;99.90;;;;;;4897046;29;20435;-67
2021/05/23 02:50:10;;;;;;;3.20;1.00;;;9.50;99.90;;;;;;4896334;29;20852;-67
2021/05/23 02:52:36;;;;;;;1.20;0.83;;;9.40;99.90;;;;;;4896743;29;20431;-67
2021/05/23 02:55:03;;;;;;;6.03;0.77;;;9.40;99.90;;;;;;4896550;29;20833;-67
2021/05/23 02:57:29;;;;;;;1.97;1.00;;;9.50;99.90;;;;;;4896703;29;20956;-67
2021/05/23 02:59:54;;;;;;;0.90;0.90;;;9.60;99.90;;;;;;4896249;29;20458;-68
2021/05/23 03:02:20;;;;;;;0.90;0.90;;;9.60;99.90;;;;;;4897355;29;20367;-67
2021/05/23 03:04:45;;;;;;;0.60;0.60;;;9.60;99.90;;;;;;4896341;29;20258;-67
2021/05/23 03:07:11;;;;;;;1.80;0.80;;;9.70;99.90;;;;;;4896349;29;20273;-66
2021/05/23 03:09:36;;;;;;;1.33;0.80;;;9.70;99.90;;;;;;4896096;29;20210;-66
2021/05/23 03:12:02;;;;;;;0.97;0.70;;;9.70;99.90;;;;;;4896569;29;20186;-67
2021/05/23 03:14:28;;;;;;;1.53;0.87;;;9.60;99.90;;;;;;4896486;29;20182;-67
2021/05/23 03:16:54;;;;;;;1.20;0.70;;;9.60;99.90;;;;;;4896525;29;20450;-68
2021/05/23 03:19:20;;;;;;;0.90;0.80;;;9.60;99.90;;;;;;4896050;29;20211;-67
2021/05/23 03:21:45;;;;;;;0.90;0.90;;;9.60;99.90;;;;;;4896092;29;20454;-67
2021/05/23 03:24:11;;;;;;;0.73;0.73;;;9.50;99.90;;;;;;4896435;29;20190;-66
2021/05/23 03:26:37;;;;;;;2.63;0.90;;;9.50;99.90;;;;;;4896220;29;20189;-67
2021/05/23 03:29:03;;;;;;;1.90;0.70;;;9.50;99.90;;;;;;4895955;29;20576;-67
2021/05/23 03:31:28;;;;;;;1.07;0.90;;;9.40;99.90;;;;;;4896039;29;20191;-67
2021/05/23 03:33:54;;;;;;;1.10;1.00;;;9.40;99.90;;;;;;4896055;29;20186;-67
2021/05/23 03:36:19;;;;;;;1.30;1.00;;;9.40;99.90;;;;;;4895932;29;20191;-66
2021/05/23 03:38:46;;;;;;;2.20;0.80;;;9.40;99.90;;;;;;4894999;29;20222;-67
2021/05/23 03:41:12;;;;;;;0.73;0.73;;;9.40;99.90;;;;;;4896221;29;20194;-67
2021/05/23 03:43:38;;;;;;;1.20;1.10;;;9.40;99.90;;;;;;4895994;29;21555;-67
2021/05/23 03:46:05;;;;;;;4.80;1.20;;;9.40;99.90;;;;;;4896164;29;20525;-68
2021/05/23 03:48:31;;;;;;;0.80;0.80;;;9.50;99.90;;;;;;4895772;29;20526;-68
2021/05/23 03:50:56;;;;;;;2.40;0.80;;;9.40;99.90;;;;;;4895312;29;20435;-67
2021/05/23 03:53:22;;;;;;;0.70;0.70;;;9.40;99.90;;;;;;4895695;29;20538;-67
2021/05/23 03:55:49;;;;;;;1.30;1.10;;;9.30;99.90;;;;;;4895795;29;20183;-67
2021/05/23 03:58:15;;;;;;;1.13;1.03;;;9.20;99.90;;;;;;4895681;29;20214;-67
2021/05/23 04:00:40;;;;;;;0.90;0.80;;;9.20;99.90;;;;;;4895226;29;20533;-66
2021/05/23 04:03:06;;;;;;;1.00;0.90;;;9.20;99.90;;;;;;4895493;29;20872;-67
2021/05/23 04:05:32;;;;;;;3.20;0.90;;;9.30;99.90;;;;;;4895707;29;20190;-67
2021/05/23 04:07:58;;;;;;;2.80;1.30;;;9.30;99.90;;;;;;4895689;29;20572;-66
2021/05/23 04:10:28;;;;;;;1.47;1.17;;;9.30;99.90;;;;;;4895248;29;20183;-67
2021/05/23 04:12:56;;;;;;;0.87;0.87;;;9.30;99.90;;;;;;4895235;29;20526;-67
2021/05/23 04:15:22;;;;;;;1.50;0.77;;;9.40;99.90;;;;;;4895594;29;20450;-67
2021/05/23 04:17:47;;;;;;;0.73;0.73;;;9.50;99.90;;;;;;4895433;29;20565;-67
2021/05/23 04:20:15;;;;;;;1.87;1.03;;;9.50;99.90;;;;;;4895155;29;20985;-67
2021/05/23 04:22:41;;;;;;;1.17;0.83;;;9.50;99.90;;;;;;4895353;29;20178;-67
2021/05/23 04:25:12;;;;;;;1.93;1.23;;;9.50;99.90;;;;;;4895382;29;20439;-67
2021/05/23 04:27:37;;;;;;;0.93;0.87;;;9.50;99.90;;;;;;4895491;29;20190;-67
2021/05/23 04:30:05;;;;;;;3.17;0.90;;;9.50;99.90;;;;;;4894657;29;20815;-67
2021/05/23 04:32:31;;;;;;;1.13;1.07;;;9.50;99.90;;;;;;4895078;29;20187;-67
2021/05/23 04:34:57;;;;;;;1.30;1.20;;;9.50;99.90;;;;;;4895326;29;20456;-67
2021/05/23 04:37:22;;;;;;;3.37;0.90;;;9.60;99.90;;;;;;4895647;29;20546;-67
2021/05/23 04:39:48;;;;;;;0.90;0.90;;;9.60;99.90;;;;;;4893865;29;20262;-67
2021/05/23 04:42:14;;;;;;;1.43;0.80;;;9.60;99.90;;;;;;4895256;29;20190;-67
2021/05/23 04:44:39;;;;;;;1.00;0.90;;;9.70;99.90;;;;;;4894860;29;20198;-67
2021/05/23 04:47:05;;;;;;;1.60;0.80;;;9.70;99.90;;;;;;4895458;29;20183;-67
2021/05/23 04:49:30;;;;;;;1.90;1.30;;;9.70;99.90;;;;;;4897354;29;20283;-67
2021/05/23 04:51:56;;;;;;;1.00;0.90;;;9.70;99.90;;;;;;4898853;29;20190;-67
2021/05/23 04:54:22;;;;;;;2.10;0.80;;;9.70;99.90;;;;;;4897828;29;20190;-67
2021/05/23 04:56:48;;;;;;;1.20;1.00;;;9.70;99.90;;;;;;4899619;29;20194;-67
2021/05/23 04:59:13;;;;;;;4.90;1.20;;;9.70;99.90;;;;;;4898808;29;20961;-67
2021/05/23 05:01:39;;;;;;;1.53;1.20;;;9.70;99.90;;;;;;4898812;29;20207;-67
2021/05/23 05:04:05;;;;;;;4.93;1.00;;;9.80;99.90;;;;;;4898599;29;20194;-66
2021/05/23 05:06:30;;;;;;;1.77;0.83;;;9.80;99.90;;;;;;4898562;29;20246;-66
2021/05/23 05:08:56;;;;;;;1.27;1.17;;;9.90;99.90;;;;;;4900926;29;20218;-67
2021/05/23 05:11:21;;;;;;;2.37;1.00;;;9.90;99.90;;;;;;4898621;29;20559;-67
2021/05/23 05:13:47;;;;;;;1.53;1.37;;;10.00;99.90;;;;;;4898594;29;20215;-66
2021/05/23 05:16:13;;;;;;;1.77;1.10;;;10.00;99.90;;;;;;4898522;29;20269;-67
2021/05/23 05:18:39;;;;;;;3.67;1.83;;;10.10;99.90;;;;;;4898499;29;20203;-67
2021/05/23 05:21:05;;;;;;;1.17;1.00;;;10.10;99.90;;;;;;4898384;29;20450;-67
2021/05/23 05:23:31;;;;;;;1.57;1.00;;;10.20;99.90;;;;;;4898773;29;20447;-67
2021/05/23 05:26:00;;;;;;;2.20;0.70;;;10.40;99.90;;;;;;4898606;29;20439;-67
2021/05/23 05:28:25;;;;;;;0.90;0.80;;;10.40;99.90;;;;;;4898342;29;20294;-66
2021/05/23 05:30:51;;;;;;;1.27;0.80;;;10.40;99.90;;;;;;4898423;29;20574;-67
2021/05/23 05:33:16;;;;;;;2.17;0.97;;;10.50;99.90;;;;;;4898701;29;20535;-67
2021/05/23 05:35:42;;;;;;;1.10;1.00;;;10.60;99.90;;;;;;4898501;29;20194;-67
2021/05/23 05:38:07;;;;;;;2.63;2.43;;;10.70;99.90;;;;;;4898064;29;20298;-67
2021/05/23 05:40:33;;;;;;;1.33;1.00;;;10.80;99.90;;;;;;4898023;29;20195;-67
2021/05/23 05:42:58;;;;;;;1.47;1.37;;;10.80;99.90;;;;;;4898755;29;20667;-67
2021/05/23 05:45:24;;;;;;;1.73;0.93;;;10.80;99.90;;;;;;4898645;29;20218;-67
2021/05/23 05:47:50;;;;;;;3.07;1.00;;;10.80;99.90;;;;;;4897919;29;20203;-68
2021/05/23 05:50:15;;;;;;;1.60;1.07;;;10.80;99.90;;;;;;4898297;29;20633;-67
2021/05/23 05:52:41;;;;;;;2.03;1.03;;;10.80;99.90;;;;;;4898082;29;20658;-67
2021/05/23 05:55:06;;;;;;;0.87;0.87;;;10.80;99.90;;;;;;4898304;29;20732;-68
2021/05/23 05:57:32;;;;;;;1.50;1.27;;;10.80;99.90;;;;;;4898032;29;20229;-67
2021/05/23 05:59:58;;;;;;;1.90;1.30;;;10.80;99.90;;;;;;4897494;29;20855;-67
2021/05/23 06:02:23;;;;;;;1.17;1.10;;;10.80;99.90;;;;;;4898174;29;20182;-67
2021/05/23 06:04:50;;;;;;;3.67;1.50;;;10.90;99.90;;;;;;4897934;29;20195;-67
2021/05/23 06:07:16;;;;;;;1.43;1.10;;;11.00;99.90;;;;;;4897524;29;20269;-67
2021/05/23 06:09:41;;;;;;;1.07;1.00;;;11.10;99.90;;;;;;4900411;29;20471;-67
2021/05/23 06:12:07;;;;;;;4.43;1.03;;;11.20;99.90;;;;;;4891224;29;20179;-66
2021/05/23 06:14:33;;;;;;;1.30;1.20;;;11.20;99.90;;;;;;4897923;29;20563;-67
2021/05/23 06:16:59;;;;;;;1.07;1.00;;;11.20;99.90;;;;;;4897675;29;20435;-67
2021/05/23 06:19:24;;;;;;;4.00;1.60;;;11.20;99.90;;;;;;4897434;29;20199;-67
2021/05/23 06:21:50;;;;;;;1.40;1.10;;;11.20;99.90;;;;;;4897328;29;20190;-67
2021/05/23 06:24:15;;;;;;;1.80;1.33;;;11.20;99.90;;;;;;4897504;29;20241;-67
2021/05/23 06:26:41;;;;;;;1.20;1.10;;;11.30;99.90;;;;;;4888301;29;20188;-67
2021/05/23 06:29:06;;;;;;;3.23;1.00;;;11.40;99.90;;;;;;4893006;29;20744;-67
2021/05/23 06:31:32;;;;;;;2.27;1.47;;;11.50;99.90;;;;;;4891996;29;20185;-67
2021/05/23 06:33:57;;;;;;;2.30;1.50;;;11.50;99.90;;;;;;4882306;29;21413;-67
2021/05/23 06:36:23;;;;;;;0.90;0.90;;;11.50;99.90;;;;;;4891742;29;20243;-67
2021/05/23 06:38:49;;;;;;;1.03;0.93;;;11.50;99.90;;;;;;4896744;29;20214;-68
2021/05/23 06:41:15;;;;;;;2.30;1.10;;;11.50;99.90;;;;;;4897144;29;20778;-68
2021/05/23 06:43:41;;;;;;;2.13;1.43;;;11.50;99.90;;;;;;4884794;29;20478;-67
2021/05/23 06:46:06;;;;;;;1.03;0.83;;;11.40;99.90;;;;;;4888097;29;20183;-67
2021/05/23 06:48:32;;;;;;;1.23;0.97;;;11.40;99.90;;;;;;4896213;29;20470;-68
2021/05/23 06:50:58;;;;;;;1.17;1.10;;;11.30;99.90;;;;;;4894796;29;20354;-68
2021/05/23 06:53:23;;;;;;;1.03;0.93;;;11.40;99.90;;;;;;4896744;29;20191;-68
2021/05/23 06:55:49;;;;;;;2.40;1.07;;;11.40;99.90;;;;;;4897105;29;20481;-67
2021/05/23 06:58:14;;;;;;;1.33;1.23;;;11.50;99.90;;;;;;4894575;29;20199;-68
2021/05/23 07:00:40;;;;;;;1.77;1.23;;;11.60;99.90;;;;;;4893656;29;20243;-68
2021/05/23 07:03:05;;;;;;;1.33;0.80;;;11.80;99.90;;;;;;4896152;29;20238;-68
2021/05/23 07:05:31;;;;;;;1.27;1.17;;;12.10;99.90;;;;;;4896649;29;20187;-68
2021/05/23 07:07:56;;;;;;;2.33;1.00;;;12.30;99.90;;;;;;4889134;29;20218;-68
2021/05/23 07:10:22;;;;;;;1.00;0.90;;;11.90;99.90;;;;;;4892413;29;20213;-68
2021/05/23 07:12:47;;;;;;;1.27;1.17;;;12.00;99.90;;;;;;4889493;29;20235;-67
2021/05/23 07:15:13;;;;;;;4.33;1.27;;;12.20;99.90;;;;;;4892462;29;20262;-68
2021/05/23 07:17:39;;;;;;;1.53;1.27;;;12.50;99.90;;;;;;4892884;29;20186;-68
2021/05/23 07:20:05;;;;;;;1.30;1.20;;;12.80;99.90;;;;;;4892120;29;20190;-68
2021/05/23 07:22:32;;;;;;;3.07;2.03;;;12.80;99.90;;;;;;4893127;29;20290;-68
2021/05/23 07:24:57;;;;;;;1.20;1.00;;;13.00;99.90;;;;;;4889546;29;20824;-68
2021/05/23 07:27:23;;;;;;;1.87;1.27;;;13.40;99.90;;;;;;4891640;29;20444;-68
2021/05/23 07:29:48;;;;;;;2.30;1.17;;;14.00;99.90;;;;;;4891279;29;20301;-69
2021/05/23 07:32:14;;;;;;;0.90;0.80;;;14.00;99.90;;;;;;4892572;29;20183;-68
2021/05/23 07:34:39;;;;;;;2.57;1.70;;;14.10;99.90;;;;;;4887592;29;20187;-68
2021/05/23 07:37:05;;;;;;;2.03;1.33;;;14.40;99.90;;;;;;4892960;29;20215;-69
2021/05/23 07:39:31;;;;;;;2.90;1.40;;;14.30;99.90;;;;;;4889827;29;20222;-68
2021/05/23 07:41:56;;;;;;;8.63;4.60;;;13.80;99.90;;;;;;4888597;29;20195;-71
2021/05/23 07:44:22;;;;;;;2.50;1.20;;;13.30;99.90;;;;;;4890549;29;20273;-72
2021/05/23 07:46:47;;;;;;;3.03;1.20;;;12.20;99.90;;;;;;4889058;29;20187;-71
2021/05/23 07:49:15;;;;;;;2.87;1.40;;;11.20;99.90;;;;;;4892409;29;20233;-71
2021/05/23 07:51:40;;;;;;;0.70;0.70;;;10.70;99.90;;;;;;4892550;29;20203;-71
2021/05/23 07:54:06;;;;;;;1.33;1.23;;;10.50;99.90;;;;;;4890717;29;20447;-70
2021/05/23 07:56:32;;;;;;;2.60;1.60;;;10.50;99.90;;;;;;4891225;29;20574;-70
2021/05/23 07:58:57;;;;;;;1.60;1.50;;;10.70;99.90;;;;;;4892413;29;20245;-71
2021/05/23 08:01:23;;;;;;;2.40;0.90;;;10.90;99.90;;;;;;4892421;29;20194;-72
2021/05/23 08:03:48;;;;;;;0.90;0.80;;;11.00;99.90;;;;;;4899208;29;20190;-70
2021/05/23 08:06:15;;;;;;;6.27;1.57;;;11.00;99.90;;;;;;4890652;29;20195;-71
2021/05/23 08:08:41;;;;;;;2.50;1.80;;;11.00;99.90;;;;;;4891863;29;20254;-69
2021/05/23 08:11:06;;;;;;;1.37;1.27;;;10.90;99.90;;;;;;4892967;29;20473;-71
2021/05/23 08:13:32;;;;;;;0.90;0.80;;;10.90;99.90;;;;;;4891172;29;20338;-71
2021/05/23 08:15:58;;;;;;;1.30;1.20;;;11.20;99.90;;;;;;4891859;29;20187;-71
2021/05/23 08:18:30;;;;;;;1.50;1.20;;;11.50;99.90;;;;;;4891207;29;20213;-71
2021/05/23 08:21:00;;;;;;;2.47;1.73;;;12.10;99.90;;;;;;4891492;29;20447;-72
2021/05/23 08:23:28;;;;;;;4.73;3.40;;;12.60;99.90;;;;;;4889790;29;20447;-72
2021/05/23 08:25:54;;;;;;;1.30;1.10;;;13.00;99.90;;;;;;4887727;29;20451;-72
2021/05/23 08:28:21;;;;;;;1.17;0.90;;;13.40;99.90;;;;;;4891406;29;20497;-70
2021/05/23 08:30:46;;;;;;;2.07;1.10;;;13.60;99.90;;;;;;4891889;29;20191;-71
2021/05/23 08:33:12;;;;;;;2.10;1.13;;;14.10;99.90;;;;;;4892594;29;20442;-73
2021/05/23 08:35:39;;;;;;;2.27;1.93;;;14.60;99.90;;;;;;4892233;29;20600;-70
2021/05/23 08:38:04;;;;;;;3.10;1.30;;;14.70;99.90;;;;;;4892218;29;20226;-72
2021/05/23 08:40:30;;;;;;;3.30;1.60;;;14.70;99.90;;;;;;4892026;29;20468;-69
2021/05/23 08:42:56;;;;;;;3.40;1.83;;;14.50;99.90;;;;;;4892210;29;20604;-69
2021/05/23 08:45:21;;;;;;;2.57;1.23;;;14.50;99.90;;;;;;4892075;29;20325;-71
2021/05/23 08:47:47;;;;;;;2.80;1.50;;;14.70;99.90;;;;;;4892235;29;20214;-71
2021/05/23 08:50:19;;;;;;;2.10;1.40;;;15.40;99.90;;;;;;4892173;29;20199;-69
2021/05/23 08:52:45;;;;;;;5.30;2.10;;;16.10;99.90;;;;;;4890586;29;20439;-69
2021/05/23 08:55:14;;;;;;;1.93;1.10;;;16.80;99.90;;;;;;4891760;29;20447;-69
2021/05/23 08:57:39;;;;;;;4.80;1.63;;;16.50;99.90;;;;;;4884209;29;20226;-68
2021/05/23 09:00:06;;;;;;;1.43;1.33;;;15.90;99.90;;;;;;4882313;29;20737;-65
2021/05/23 09:02:31;;;;;;;1.63;1.47;;;15.70;99.90;;;;;;4878003;29;20566;-66
2021/05/23 09:04:57;;;;;;;1.67;1.47;;;15.70;99.90;;;;;;4887300;29;20443;-66
2021/05/23 09:07:22;;;;;;;2.40;1.63;;;15.90;99.90;;;;;;4881339;29;20184;-67
2021/05/23 09:09:49;;;;;;;4.10;2.30;;;16.40;99.90;;;;;;4877756;29;20665;-65
2021/05/23 09:12:18;;;;;;;1.90;1.20;;;16.80;99.90;;;;;;4879649;29;20183;-66
2021/05/23 09:14:49;;;;;;;2.33;1.57;;;17.00;99.90;;;;;;4894705;29;20875;-66
2021/05/23 09:17:23;;;;;;;7.50;1.40;;;17.00;99.90;;;;;;4891822;29;20443;-65
2021/05/23 09:19:49;;;;;;;2.60;1.23;;;17.30;99.90;;;;;;4894929;29;20490;-66
2021/05/23 09:22:18;;;;;;;2.27;2.07;;;17.00;99.90;;;;;;4894868;29;20443;-66
2021/05/23 09:24:58;;;;;;;5.53;2.23;;;16.50;99.90;;;;;;4894861;29;20880;-66
2021/05/23 09:27:27;;;;;;;2.73;1.90;;;16.10;99.90;;;;;;4895347;29;20533;-65
2021/05/23 09:30:03;;;;;;;5.10;4.53;;;16.10;99.90;;;;;;4894815;29;20510;-65
2021/05/23 09:32:29;;;;;;;2.50;2.30;;;16.20;99.90;;;;;;4894967;29;20946;-65
2021/05/23 09:35:04;;;;;;;13.00;5.10;;;15.80;99.90;;;;;;4896034;29;20427;-66
2021/05/23 09:37:29;;;;;;;2.50;1.63;;;15.70;99.90;;;;;;4898274;29;20541;-65
2021/05/23 09:39:55;;;;;;;11.50;4.40;;;15.20;99.90;;;;;;4898188;29;21061;-65
2021/05/23 09:42:22;;;;;;;2.80;1.67;;;14.20;99.90;;;;;;4898175;29;20205;-65
2021/05/23 09:44:48;;;;;;;1.30;1.20;;;13.10;99.90;;;;;;4898392;29;20189;-66
2021/05/23 09:47:14;;;;;;;7.33;1.63;;;12.30;99.90;;;;;;4898397;29;20435;-65
2021/05/23 09:49:45;;;;;;;7.50;5.77;;;12.00;99.90;;;;;;4897999;29;20478;-66
2021/05/23 09:52:16;;;;;;;7.70;6.47;;;12.10;99.90;;;;;;4898141;29;20187;-65
2021/05/23 09:54:47;;;;;;;3.00;2.80;;;12.60;99.90;;;;;;4898322;29;20497;-67
2021/05/23 09:57:15;;;;;;;8.20;5.60;;;13.20;99.90;;;;;;4898070;29;20542;-65
2021/05/23 09:59:41;;;;;;;3.83;1.77;;;14.30;99.90;;;;;;4897712;29;20561;-66
2021/05/23 10:02:16;;;;;;;3.20;1.20;;;15.00;99.90;;;;;;4897891;29;21105;-66
2021/05/23 10:04:42;;;;;;;2.20;0.90;;;15.60;99.90;;;;;;4898250;29;20466;-65
2021/05/23 10:07:08;;;;;;;1.97;1.50;;;15.70;99.90;;;;;;4898110;29;20447;-65
2021/05/23 10:09:35;;;;;;;1.20;1.10;;;16.10;99.90;;;;;;4897471;29;20245;-65
2021/05/23 10:12:01;;;;;;;2.80;1.20;;;16.70;99.90;;;;;;4897729;29;20465;-66
2021/05/23 10:14:29;;;;;;;1.20;1.10;;;17.80;99.90;;;;;;4897342;29;20440;-64
2021/05/23 10:16:55;;;;;;;3.50;1.87;;;17.90;99.90;;;;;;4897913;29;20491;-66
2021/05/23 10:19:30;;;;;;;2.23;1.73;;;17.60;99.90;;;;;;4897327;29;20494;-71
2021/05/23 10:21:57;;;;;;;1.40;1.30;;;18.30;99.90;;;;;;4895936;29;20463;-68
2021/05/23 10:24:37;;;;;;;5.07;1.30;;;19.50;99.90;;;;;;4897639;29;20478;-67
2021/05/23 10:27:08;;;;;;;1.70;1.50;;;20.90;99.90;;;;;;4897482;29;20455;-68
2021/05/23 10:29:36;;;;;;;1.57;1.47;;;21.00;95.30;;;;;;4897232;29;20482;-70
2021/05/23 10:32:13;;;;;;;1.77;1.10;;;21.90;93.90;;;;;;4881868;29;20435;-71
2021/05/23 10:34:42;;;;;;;2.03;1.90;;;22.40;91.10;;;;;;4891177;29;20440;-72
2021/05/23 10:37:18;;;;;;;3.30;2.90;;;23.00;88.40;;;;;;4879494;29;20443;-71
2021/05/23 10:39:51;;;;;;;2.33;1.77;;;23.00;87.50;;;;;;4892216;29;20466;-72
2021/05/23 10:42:17;;;;;;;1.77;1.63;;;23.10;76.20;;;;;;4881629;29;20440;-69
2021/05/23 10:44:48;;;;;;;2.50;2.00;;;21.70;81.80;;;;;;4891672;29;20436;-70
2021/05/23 10:47:21;;;;;;;2.03;1.80;;;20.10;86.30;;;;;;4885788;29;20435;-69
2021/05/23 10:49:58;;;;;;;2.20;1.23;;;19.00;90.20;;;;;;4886772;29;20528;-69
2021/05/23 10:52:29;;;;;;;2.67;1.60;;;19.30;92.50;;;;;;4880191;29;20524;-70
2021/05/23 10:54:59;;;;;;;1.60;1.50;;;20.20;90.40;;;;;;4897058;29;20460;-71
2021/05/23 10:57:25;;;;;;;1.70;1.60;;;20.70;86.70;;;;;;4887855;29;20523;-71
2021/05/23 11:00:03;;;;;;;1.73;1.47;;;20.20;88.90;;;;;;4891875;29;20462;-69
2021/05/23 11:02:37;;;;;;;1.53;1.37;;;19.10;86.60;;;;;;4881207;29;20498;-69
2021/05/23 11:05:07;;;;;;;3.00;2.77;;;18.00;91.80;;;;;;4889734;29;20527;-66
2021/05/23 11:07:33;;;;;;;5.97;1.87;;;17.30;93.90;;;;;;4878464;29;20499;-66
2021/05/23 11:10:01;;;;;;;1.80;1.70;;;16.70;99.90;;;;;;4891737;29;20494;-66
2021/05/23 11:12:26;;;;;;;2.53;1.93;;;16.50;99.90;;;;;;4892386;29;20773;-66
2021/05/23 11:14:53;;;;;;;1.97;1.80;;;16.70;99.90;;;;;;4886207;29;20438;-66
2021/05/23 11:17:21;;;;;;;1.60;1.50;;;17.20;99.90;;;;;;4886059;29;20176;-66
2021/05/23 11:19:47;;;;;;;1.60;1.50;;;18.50;99.60;;;;;;4877994;29;20482;-66
2021/05/23 11:22:12;;;;;;;2.60;1.40;;;20.40;97.20;;;;;;4880820;29;20942;-66
2021/05/23 11:24:38;;;;;;;3.60;1.60;;;21.30;92.90;;;;;;4891652;29;20191;-66
2021/05/23 11:27:13;;;;;;;2.33;1.50;;;21.30;91.00;;;;;;4878106;29;20630;-66
2021/05/23 11:29:50;;;;;;;1.73;1.60;;;21.30;87.10;;;;;;4890480;29;20243;-66
2021/05/23 11:32:17;;;;;;;1.63;1.53;;;21.40;86.20;;;;;;4878448;29;20436;-66
2021/05/23 11:34:43;;;;;;;0.70;0.70;;;22.40;84.50;;;;;;4878029;29;20428;-66
2021/05/23 11:37:09;;;;;;;0.80;0.80;;;23.00;77.30;;;;;;4877519;29;20859;-66
2021/05/23 11:39:35;;;;;;;1.90;0.90;;;23.00;73.60;;;;;;4877972;29;20546;-66
2021/05/23 11:42:03;;;;;;;2.17;2.00;;;23.50;69.30;;;;;;4886818;29;20358;-66
2021/05/23 11:44:36;;;;;;;1.40;1.30;;;22.70;69.40;;;;;;4889022;29;20198;-66
2021/05/23 11:47:03;;;;;;;1.60;1.43;;;22.60;70.10;;;;;;4894295;29;20439;-66
2021/05/23 11:49:30;;;;;;;1.20;1.10;;;24.40;66.20;;;;;;4877375;29;20479;-66
2021/05/23 11:52:05;;;;;;;5.33;1.20;;;23.80;65.50;;;;;;4890296;29;20435;-66
2021/05/23 11:54:31;;;;;;;1.47;0.93;;;24.10;61.20;;;;;;4882763;29;20814;-66
2021/05/23 11:56:57;;;;;;;1.43;1.27;;;24.70;59.30;;;;;;4885823;29;20432;-66
2021/05/23 11:59:22;;;;;;;2.97;1.10;;;24.30;59.70;;;;;;4881760;29;20206;-66
2021/05/23 12:01:51;;;;;;;2.80;2.50;;;23.50;62.50;;;;;;4880483;29;20617;-66
2021/05/23 12:04:17;;;;;;;1.10;1.00;;;25.10;60.00;;;;;;4892468;29;20191;-66
2021/05/23 12:06:45;;;;;;;1.60;1.00;;;24.70;58.50;;;;;;4892020;29;20508;-66
2021/05/23 12:09:28;;;;;;;2.47;2.27;;;24.90;59.30;;;;;;4884593;29;20476;-66
2021/05/23 12:11:56;;;;;;;1.73;1.40;;;25.80;57.00;;;;;;4885350;29;20486;-66
2021/05/23 12:14:33;;;;;;;1.57;1.47;;;26.50;54.60;;;;;;4891120;29;20434;-66
2021/05/23 12:17:11;;;;;;;1.70;1.60;;;26.60;54.40;;;;;;4893351;29;20427;-66
2021/05/23 12:19:47;;;;;;;2.03;1.47;;;25.10;54.80;;;;;;4878779;29;20466;-66
2021/05/23 12:22:35;;;;;;;1.80;1.50;;;23.50;57.40;;;;;;4895546;29;20435;-66
2021/05/23 12:25:03;;;;;;;0.97;0.97;;;22.60;60.60;;;;;;4895461;29;20542;-66
2021/05/23 12:27:42;;;;;;;1.77;1.20;;;23.40;58.00;;;;;;4895537;29;20812;-66
2021/05/23 12:30:12;;;;;;;1.60;1.10;;;23.60;58.30;;;;;;4895091;29;20779;-66
2021/05/23 12:32:52;;;;;;;1.50;1.40;;;23.70;59.00;;;;;;4895565;29;20513;-66
2021/05/23 12:35:32;;;;;;;1.87;1.40;;;23.60;58.40;;;;;;4895322;29;20808;-66
2021/05/23 12:38:16;;;;;;;3.13;2.03;;;22.30;58.80;;;;;;4895272;29;20478;-66
2021/05/23 12:40:44;;;;;;;2.83;1.20;;;21.60;60.90;;;;;;4895307;29;20529;-66
2021/05/23 12:43:11;;;;;;;1.53;1.00;;;19.70;63.30;;;;;;4895055;29;20447;-66
2021/05/23 12:45:37;;;;;;;3.10;1.13;;;18.80;65.70;;;;;;4895331;29;20454;-66
2021/05/23 12:48:08;;;;;;;1.20;1.10;;;18.30;67.70;;;;;;4895298;29;20455;-66
2021/05/23 12:50:44;;;;;;;1.70;1.27;;;18.00;70.10;;;;;;4895118;29;20530;-66